createdAt,value
2023-08-05T00:00:14.060Z,11.60
2023-08-05T00:03:01.992Z,16.10
2023-08-05T00:05:30.307Z,11.50
2023-08-05T00:08:08.235Z,15.00
2023-08-05T00:10:36.266Z,11.70
2023-08-05T00:13:04.190Z,9.00
2023-08-05T00:15:31.980Z,22.40
2023-08-05T00:18:02.190Z,11.10
2023-08-05T00:20:33.154Z,16.20
2023-08-05T00:23:04.488Z,17.10
2023-08-05T00:25:32.282Z,11.40
2023-08-05T00:28:00.121Z,14.50
2023-08-05T00:30:33.281Z,13.00
2023-08-05T00:33:01.240Z,8.30
2023-08-05T00:35:29.311Z,12.90
2023-08-05T00:37:57.114Z,12.70
2023-08-05T00:40:24.955Z,18.40
2023-08-05T00:42:53.019Z,11.00
2023-08-05T00:45:21.303Z,16.30
2023-08-05T00:47:49.514Z,14.50
2023-08-05T00:50:17.822Z,12.40
2023-08-05T00:52:45.773Z,13.60
2023-08-05T00:55:13.735Z,12.70
2023-08-05T00:57:41.617Z,10.80
2023-08-05T01:00:09.662Z,8.50
2023-08-05T01:02:38.175Z,10.70
2023-08-05T01:05:06.775Z,10.00
2023-08-05T01:07:35.466Z,11.20
2023-08-05T01:10:03.677Z,13.60
2023-08-05T01:12:31.959Z,11.90
2023-08-05T01:14:59.922Z,10.50
2023-08-05T01:17:31.279Z,9.20
2023-08-05T01:20:02.762Z,11.10
2023-08-05T01:22:52.033Z,7.40
2023-08-05T01:25:28.251Z,10.40
2023-08-05T01:28:00.155Z,14.40
2023-08-05T01:30:28.407Z,13.30
2023-08-05T01:32:59.464Z,12.50
2023-08-05T01:35:27.919Z,11.10
2023-08-05T01:37:55.805Z,14.10
2023-08-05T01:40:29.305Z,10.30
2023-08-05T01:42:58.109Z,10.80
2023-08-05T01:45:26.370Z,8.70
2023-08-05T01:47:54.237Z,8.60
2023-08-05T01:50:24.521Z,10.10
2023-08-05T01:52:55.625Z,8.70
2023-08-05T01:55:23.648Z,11.10
2023-08-05T01:57:51.629Z,9.20
2023-08-05T02:00:21.962Z,10.10
2023-08-05T02:02:49.890Z,10.30
2023-08-05T02:05:17.984Z,9.60
2023-08-05T02:07:45.770Z,12.50
2023-08-05T02:10:13.745Z,12.00
2023-08-05T02:12:41.665Z,10.90
2023-08-05T02:15:09.634Z,13.90
2023-08-05T02:17:37.567Z,13.50
2023-08-05T02:20:05.821Z,15.20
2023-08-05T02:22:33.616Z,12.80
2023-08-05T02:25:01.565Z,10.40
2023-08-05T02:27:29.437Z,10.80
2023-08-05T02:29:57.545Z,12.00
2023-08-05T02:32:25.358Z,10.70
2023-08-05T02:34:53.074Z,10.60
2023-08-05T02:37:20.943Z,8.10
2023-08-05T02:39:48.732Z,11.80
2023-08-05T02:42:16.578Z,8.80
2023-08-05T02:44:44.474Z,9.20
2023-08-05T02:47:12.370Z,11.80
2023-08-05T02:49:40.285Z,9.10
2023-08-05T02:52:08.190Z,9.90
2023-08-05T02:54:38.958Z,10.90
2023-08-05T02:57:06.833Z,14.80
2023-08-05T02:59:38.652Z,16.30
2023-08-05T03:02:06.640Z,7.30
2023-08-05T03:04:34.614Z,12.70
2023-08-05T03:07:02.465Z,8.40
2023-08-05T03:09:30.238Z,11.50
2023-08-05T03:12:05.508Z,9.90
2023-08-05T03:14:33.608Z,7.80
2023-08-05T03:17:01.573Z,7.10
2023-08-05T03:19:29.464Z,10.20
2023-08-05T03:21:57.259Z,12.50
2023-08-05T03:24:25.135Z,14.50
2023-08-05T03:26:53.148Z,17.10
2023-08-05T03:29:21.515Z,14.90
2023-08-05T03:31:49.371Z,13.90
2023-08-05T03:34:18.162Z,13.50
2023-08-05T03:36:46.057Z,9.90
2023-08-05T03:39:14.090Z,13.00
2023-08-05T03:41:43.482Z,13.20
2023-08-05T03:44:11.296Z,14.10
2023-08-05T03:46:39.726Z,14.10
2023-08-05T03:49:07.697Z,9.80
2023-08-05T03:51:35.433Z,9.00
2023-08-05T03:54:05.534Z,15.70
2023-08-05T03:56:33.388Z,12.20
2023-08-05T03:59:01.477Z,9.80
2023-08-05T04:01:30.433Z,10.00
2023-08-05T04:03:58.443Z,12.30
2023-08-05T04:06:26.886Z,11.20
2023-08-05T04:08:55.423Z,10.00
2023-08-05T04:11:23.409Z,6.80
2023-08-05T04:13:53.621Z,9.90
2023-08-05T04:16:24.763Z,6.80
2023-08-05T04:18:53.643Z,11.00
2023-08-05T04:21:24.647Z,9.20
2023-08-05T04:23:53.231Z,8.50
2023-08-05T04:26:21.419Z,10.30
2023-08-05T04:28:49.224Z,11.10
2023-08-05T04:31:17.327Z,8.30
2023-08-05T04:33:45.601Z,10.40
2023-08-05T04:36:13.440Z,8.40
2023-08-05T04:38:41.220Z,11.10
2023-08-05T04:41:08.964Z,10.80
2023-08-05T04:43:37.286Z,11.40
2023-08-05T04:46:05.092Z,9.40
2023-08-05T04:48:35.875Z,10.80
2023-08-05T04:51:11.767Z,13.50
2023-08-05T04:53:39.997Z,7.60
2023-08-05T04:56:07.983Z,10.20
2023-08-05T04:58:35.727Z,11.60
2023-08-05T05:01:06.134Z,9.80
2023-08-05T05:03:34.115Z,12.10
2023-08-05T05:06:02.193Z,8.40
2023-08-05T05:08:32.683Z,10.00
2023-08-05T05:11:00.755Z,7.30
2023-08-05T05:13:28.701Z,10.00
2023-08-05T05:15:56.681Z,10.20
2023-08-05T05:18:24.616Z,14.00
2023-08-05T05:20:53.042Z,8.90
2023-08-05T05:23:21.170Z,9.50
2023-08-05T05:25:49.364Z,10.10
2023-08-05T05:28:17.363Z,6.50
2023-08-05T05:30:48.285Z,7.80
2023-08-05T05:33:16.071Z,8.50
2023-08-05T05:35:44.002Z,8.00
2023-08-05T05:38:11.857Z,12.80
2023-08-05T05:40:42.670Z,9.20
2023-08-05T05:43:10.667Z,7.10
2023-08-05T05:45:38.700Z,6.40
2023-08-05T05:48:06.978Z,7.20
2023-08-05T05:50:38.808Z,6.70
2023-08-05T05:53:06.656Z,9.70
2023-08-05T05:55:34.975Z,5.00
2023-08-05T05:58:04.195Z,6.60
2023-08-05T06:00:32.763Z,4.80
2023-08-05T06:03:02.050Z,6.50
2023-08-05T06:05:31.242Z,7.90
2023-08-05T06:07:58.986Z,8.60
2023-08-05T06:10:26.937Z,9.40
2023-08-05T06:12:54.797Z,12.60
2023-08-05T06:15:26.279Z,7.20
2023-08-05T06:17:54.192Z,8.30
2023-08-05T06:20:22.085Z,9.10
2023-08-05T06:22:49.898Z,11.40
2023-08-05T06:25:17.918Z,7.00
2023-08-05T06:27:45.851Z,10.00
2023-08-05T06:30:13.948Z,7.80
2023-08-05T06:32:41.808Z,5.70
2023-08-05T06:35:09.762Z,7.50
2023-08-05T06:37:37.722Z,8.70
2023-08-05T06:40:06.178Z,8.10
2023-08-05T06:42:34.267Z,12.00
2023-08-05T06:45:02.059Z,7.60
2023-08-05T06:47:32.668Z,6.20
2023-08-05T06:50:03.924Z,14.80
2023-08-05T06:52:31.834Z,8.40
2023-08-05T06:55:03.121Z,10.40
2023-08-05T06:57:32.181Z,8.50
2023-08-05T07:00:00.074Z,5.50
2023-08-05T07:02:27.962Z,9.00
2023-08-05T07:04:55.778Z,6.40
2023-08-05T07:07:26.347Z,8.20
2023-08-05T07:10:01.673Z,7.80
2023-08-05T07:12:31.995Z,4.40
2023-08-05T07:14:59.670Z,6.40
2023-08-05T07:17:27.807Z,6.10
2023-08-05T07:19:55.622Z,6.60
2023-08-05T07:22:23.614Z,5.60
2023-08-05T07:24:54.156Z,6.90
2023-08-05T07:27:22.262Z,6.20
2023-08-05T07:29:50.061Z,8.50
2023-08-05T07:32:17.984Z,11.60
2023-08-05T07:34:47.723Z,4.90
2023-08-05T07:37:16.238Z,5.40
2023-08-05T07:39:47.713Z,6.60
2023-08-05T07:42:16.694Z,8.30
2023-08-05T07:44:47.102Z,10.50
2023-08-05T07:47:15.806Z,7.90
2023-08-05T07:49:44.105Z,7.10
2023-08-05T07:52:12.326Z,6.60
2023-08-05T07:54:40.634Z,7.40
2023-08-05T07:57:09.757Z,5.40
2023-08-05T07:59:37.759Z,8.30
2023-08-05T08:02:07.530Z,6.50
2023-08-05T08:04:35.978Z,6.90
2023-08-05T08:07:05.986Z,5.20
2023-08-05T08:09:33.789Z,4.70
2023-08-05T08:12:01.739Z,4.80
2023-08-05T08:14:29.533Z,4.60
2023-08-05T08:17:00.176Z,6.20
2023-08-05T08:19:27.975Z,5.60
2023-08-05T08:21:55.750Z,3.30
2023-08-05T08:28:05.639Z,5.70
2023-08-05T08:30:33.682Z,10.00
2023-08-05T08:33:01.650Z,5.90
2023-08-05T08:35:29.882Z,5.10
2023-08-05T08:37:57.844Z,7.00
2023-08-05T08:40:26.158Z,3.70
2023-08-05T08:42:54.545Z,6.10
2023-08-05T08:45:22.711Z,5.50
2023-08-05T08:47:50.856Z,3.90
2023-08-05T08:50:18.963Z,6.00
2023-08-05T08:52:48.270Z,2.90
2023-08-05T08:55:16.864Z,7.30
2023-08-05T08:57:44.859Z,6.20
2023-08-05T09:00:13.200Z,3.50
2023-08-05T09:02:41.713Z,7.30
2023-08-05T09:05:10.594Z,5.50
2023-08-05T09:07:38.741Z,4.50
2023-08-05T09:10:07.092Z,5.80
2023-08-05T09:12:45.641Z,11.50
2023-08-05T09:15:15.188Z,5.40
2023-08-05T09:17:44.592Z,4.00
2023-08-05T09:20:13.639Z,8.90
2023-08-05T09:22:53.207Z,6.80
2023-08-05T09:25:21.185Z,3.00
2023-08-05T09:27:49.181Z,5.50
2023-08-05T09:30:18.095Z,3.00
2023-08-05T09:32:47.065Z,6.60
2023-08-05T09:35:15.324Z,6.40
2023-08-05T09:37:48.138Z,4.50
2023-08-05T09:40:19.261Z,4.80
2023-08-05T09:42:51.702Z,6.00
2023-08-05T09:45:20.057Z,4.80
2023-08-05T09:47:48.709Z,6.10
2023-08-05T09:50:17.852Z,5.00
2023-08-05T09:52:51.357Z,5.60
2023-08-05T09:55:20.352Z,2.80
2023-08-05T09:57:48.879Z,6.40
2023-08-05T10:00:16.914Z,7.50
2023-08-05T10:02:45.738Z,4.60
2023-08-05T10:05:14.412Z,3.90
2023-08-05T10:07:43.327Z,4.80
2023-08-05T10:10:17.506Z,3.50
2023-08-05T10:12:48.675Z,2.40
2023-08-05T10:15:24.131Z,2.80
2023-08-05T10:17:53.113Z,8.30
2023-08-05T10:20:21.123Z,2.10
2023-08-05T10:23:03.697Z,4.90
2023-08-05T10:25:41.954Z,1.60
2023-08-05T10:28:10.382Z,4.20
2023-08-05T10:30:42.333Z,3.60
2023-08-05T10:33:10.510Z,6.20
2023-08-05T10:35:41.786Z,6.30
2023-08-05T10:38:10.922Z,3.70
2023-08-05T10:40:39.949Z,3.10
2023-08-05T10:43:08.125Z,3.00
2023-08-05T10:45:36.286Z,3.60
2023-08-05T10:48:10.955Z,2.70
2023-08-05T10:50:43.099Z,8.30
2023-08-05T10:53:11.591Z,3.40
2023-08-05T10:55:45.440Z,7.60
2023-08-05T10:58:13.965Z,4.50
2023-08-05T11:00:43.298Z,3.90
2023-08-05T11:03:23.702Z,2.80
2023-08-05T11:05:51.987Z,7.50
2023-08-05T11:08:23.134Z,3.10
2023-08-05T11:10:51.196Z,5.10
2023-08-05T11:13:19.437Z,5.00
2023-08-05T11:16:05.406Z,4.80
2023-08-05T11:18:33.780Z,3.90
2023-08-05T11:21:02.829Z,6.60
2023-08-05T11:23:30.733Z,5.10
2023-08-05T11:26:00.108Z,5.20
2023-08-05T11:28:28.436Z,4.70
2023-08-05T11:30:57.177Z,8.20
2023-08-05T11:33:25.083Z,4.20
2023-08-05T11:35:55.728Z,5.10
2023-08-05T11:38:23.921Z,6.10
2023-08-05T11:40:55.833Z,10.90
2023-08-05T11:43:24.303Z,6.20
2023-08-05T11:45:53.242Z,10.80
2023-08-05T11:48:22.096Z,6.70
2023-08-05T11:50:50.634Z,8.90
2023-08-05T11:53:19.083Z,9.50
2023-08-05T11:55:48.482Z,6.70
2023-08-05T11:58:16.625Z,6.80
2023-08-05T12:00:45.646Z,6.30
2023-08-05T12:03:15.031Z,4.50
2023-08-05T12:05:43.953Z,5.60
2023-08-05T12:08:12.156Z,6.80
2023-08-05T12:10:40.700Z,6.80
2023-08-05T12:13:11.447Z,5.80
2023-08-05T12:15:39.410Z,5.70
2023-08-05T12:18:07.634Z,4.00
2023-08-05T12:20:36.840Z,4.60
2023-08-05T12:23:06.969Z,6.00
2023-08-05T12:25:35.427Z,5.60
2023-08-05T12:28:06.329Z,7.00
2023-08-05T12:30:34.904Z,12.00
2023-08-05T12:33:06.809Z,7.20
2023-08-05T12:35:36.119Z,7.40
2023-08-05T12:38:04.207Z,5.70
2023-08-05T12:40:32.018Z,4.70
2023-08-05T12:43:00.106Z,5.50
2023-08-05T12:45:28.229Z,6.50
2023-08-05T12:47:56.434Z,5.20
2023-08-05T12:50:24.511Z,5.30
2023-08-05T12:52:52.412Z,6.60
2023-08-05T12:55:20.313Z,8.30
2023-08-05T12:57:48.153Z,4.50
2023-08-05T13:00:15.949Z,4.70
2023-08-05T13:02:46.412Z,6.60
2023-08-05T13:05:14.602Z,5.50
2023-08-05T13:07:42.540Z,7.90
2023-08-05T13:10:12.404Z,5.60
2023-08-05T13:12:40.707Z,10.10
2023-08-05T13:15:09.101Z,3.60
2023-08-05T13:17:36.942Z,6.80
2023-08-05T13:20:05.650Z,10.60
2023-08-05T13:22:33.419Z,5.60
2023-08-05T13:25:02.294Z,5.20
2023-08-05T13:27:30.240Z,3.60
2023-08-05T13:29:57.984Z,4.20
2023-08-05T13:32:25.776Z,3.40
2023-08-05T13:34:53.559Z,5.60
2023-08-05T13:37:21.588Z,5.00
2023-08-05T13:39:50.177Z,7.20
2023-08-05T13:42:18.185Z,4.20
2023-08-05T13:44:46.079Z,4.70
2023-08-05T13:47:13.935Z,5.50
2023-08-05T13:49:41.819Z,3.60
2023-08-05T13:52:09.568Z,3.50
2023-08-05T13:54:37.462Z,5.20
2023-08-05T13:57:05.436Z,4.60
2023-08-05T13:59:33.217Z,4.30
2023-08-05T14:02:01.070Z,4.50
2023-08-05T14:04:29.771Z,3.60
2023-08-05T14:06:57.631Z,8.00
2023-08-05T14:09:25.465Z,7.30
2023-08-05T14:11:53.374Z,4.00
2023-08-05T14:14:24.049Z,4.70
2023-08-05T14:16:52.395Z,5.50
2023-08-05T14:19:20.514Z,3.70
2023-08-05T14:21:48.383Z,4.50
2023-08-05T14:24:16.175Z,5.50
2023-08-05T14:26:44.803Z,5.10
2023-08-05T14:29:13.578Z,2.80
2023-08-05T14:31:41.670Z,5.90
2023-08-05T14:34:10.614Z,4.30
2023-08-05T14:36:38.599Z,5.50
2023-08-05T14:39:06.604Z,4.10
2023-08-05T14:41:38.247Z,3.60
2023-08-05T14:44:06.081Z,5.30
2023-08-05T14:46:34.134Z,5.10
2023-08-05T14:49:01.982Z,3.90
2023-08-05T14:51:29.745Z,6.10
2023-08-05T14:53:59.672Z,7.10
2023-08-05T14:56:27.813Z,8.70
2023-08-05T14:58:55.624Z,4.80
2023-08-05T15:01:23.475Z,4.60
2023-08-05T15:03:52.399Z,6.20
2023-08-05T15:06:20.859Z,4.40
2023-08-05T15:08:49.028Z,5.30
2023-08-05T15:11:16.942Z,4.90
2023-08-05T15:13:44.916Z,5.40
2023-08-05T15:16:12.673Z,8.80
2023-08-05T15:18:41.442Z,12.50
2023-08-05T15:21:09.267Z,7.90
2023-08-05T15:23:37.468Z,5.70
2023-08-05T15:26:05.340Z,7.50
2023-08-05T15:28:33.356Z,5.70
2023-08-05T15:31:01.481Z,4.50
2023-08-05T15:33:29.407Z,6.50
2023-08-05T15:35:57.261Z,7.30
2023-08-05T15:38:25.054Z,5.80
2023-08-05T15:41:01.987Z,3.70
2023-08-05T15:43:29.785Z,6.20
2023-08-05T15:45:58.008Z,3.90
2023-08-05T15:48:26.061Z,5.20
2023-08-05T15:50:54.227Z,7.50
2023-08-05T15:53:21.959Z,5.20
2023-08-05T15:55:58.338Z,4.90
2023-08-05T15:58:26.100Z,6.30
2023-08-05T16:01:00.577Z,7.80
2023-08-05T16:03:28.886Z,7.20
2023-08-05T16:06:01.048Z,8.70
2023-08-05T16:08:29.553Z,7.30
2023-08-05T16:11:04.250Z,10.10
2023-08-05T16:13:32.144Z,10.50
2023-08-05T16:16:07.540Z,10.80
2023-08-05T16:18:39.760Z,8.20
2023-08-05T16:21:23.443Z,7.50
2023-08-05T16:23:54.539Z,5.50
2023-08-05T16:26:23.409Z,7.50
2023-08-05T16:28:51.477Z,6.70
2023-08-05T16:31:20.179Z,7.30
2023-08-05T16:33:48.051Z,8.50
2023-08-05T16:36:16.030Z,8.00
2023-08-05T16:38:44.772Z,8.70
2023-08-05T16:41:13.474Z,8.50
2023-08-05T16:43:41.728Z,9.10
2023-08-05T16:46:09.922Z,7.40
2023-08-05T16:48:38.006Z,9.00
2023-08-05T16:51:06.769Z,8.90
2023-08-05T16:53:34.866Z,5.30
2023-08-05T16:56:03.013Z,8.50
2023-08-05T16:58:32.618Z,10.40
2023-08-05T17:01:07.755Z,6.00
2023-08-05T17:03:40.513Z,7.10
2023-08-05T17:06:16.132Z,5.70
2023-08-05T17:12:26.282Z,9.50
2023-08-05T17:14:54.156Z,7.50
2023-08-05T17:17:22.444Z,5.50
2023-08-05T17:19:50.424Z,8.20
2023-08-05T17:22:18.717Z,10.80
2023-08-05T17:24:46.585Z,9.50
2023-08-05T17:27:14.408Z,10.80
2023-08-05T17:29:42.314Z,13.00
2023-08-05T17:32:10.308Z,10.00
2023-08-05T17:34:38.174Z,8.80
2023-08-05T17:37:06.680Z,7.50
2023-08-05T17:39:34.909Z,6.20
2023-08-05T17:42:03.211Z,7.10
2023-08-05T17:44:34.188Z,5.70
2023-08-05T17:47:02.409Z,5.50
2023-08-05T17:49:30.421Z,6.60
2023-08-05T17:51:58.291Z,7.00
2023-08-05T17:54:26.075Z,5.90
2023-08-05T17:56:53.955Z,5.80
2023-08-05T17:59:21.879Z,4.00
2023-08-05T18:01:50.141Z,6.20
2023-08-05T18:04:18.455Z,6.10
2023-08-05T18:06:46.659Z,6.10
2023-08-05T18:09:14.435Z,5.20
2023-08-05T18:11:42.313Z,6.00
2023-08-05T18:14:10.787Z,5.50
2023-08-05T18:16:38.684Z,6.80
2023-08-05T18:19:06.508Z,6.90
2023-08-05T18:21:37.299Z,4.30
2023-08-05T18:24:05.979Z,4.00
2023-08-05T18:26:34.007Z,5.80
2023-08-05T18:29:01.926Z,7.50
2023-08-05T18:31:29.924Z,6.10
2023-08-05T18:33:57.885Z,6.30
2023-08-05T18:36:25.752Z,3.80
2023-08-05T18:38:53.929Z,5.20
2023-08-05T18:41:28.314Z,7.60
2023-08-05T18:43:56.298Z,4.50
2023-08-05T18:46:24.251Z,7.70
2023-08-05T18:48:52.057Z,5.60
2023-08-05T18:51:20.239Z,9.60
2023-08-05T18:53:47.983Z,8.60
2023-08-05T18:56:15.845Z,6.90
2023-08-05T18:58:43.717Z,6.70
2023-08-05T19:01:11.689Z,5.40
2023-08-05T19:03:40.283Z,5.70
2023-08-05T19:06:08.477Z,5.50
2023-08-05T19:08:36.428Z,4.10
2023-08-05T19:11:04.371Z,5.80
2023-08-05T19:13:35.238Z,10.20
2023-08-05T19:16:05.183Z,6.50
2023-08-05T19:18:36.081Z,5.30
2023-08-05T19:21:08.025Z,7.10
2023-08-05T19:23:36.281Z,4.90
2023-08-05T19:26:05.334Z,4.70
2023-08-05T19:28:33.299Z,4.80
2023-08-05T19:31:05.926Z,4.90
2023-08-05T19:33:34.693Z,6.00
2023-08-05T19:36:14.797Z,6.60
2023-08-05T19:38:43.287Z,5.40
2023-08-05T19:41:12.015Z,7.10
2023-08-05T19:43:40.548Z,4.20
2023-08-05T19:46:10.019Z,4.90
2023-08-05T19:48:39.953Z,5.10
2023-08-05T19:53:38.835Z,4.90
2023-08-05T19:56:11.149Z,7.40
2023-08-05T19:58:41.269Z,4.50
2023-08-05T20:01:10.597Z,5.80
2023-08-05T20:03:40.591Z,5.40
2023-08-05T20:06:08.687Z,4.10
2023-08-05T20:08:37.080Z,4.10
2023-08-05T20:11:05.114Z,3.40
2023-08-05T20:13:33.242Z,2.90
2023-08-05T20:16:04.627Z,4.30
2023-08-05T20:18:34.950Z,5.60
2023-08-05T20:21:03.249Z,6.80
2023-08-05T20:23:33.509Z,3.80
2023-08-05T20:26:10.972Z,2.90
2023-08-05T20:28:39.288Z,2.50
2023-08-05T20:31:07.297Z,4.30
2023-08-05T20:33:35.101Z,3.80
2023-08-05T20:36:03.110Z,4.90
2023-08-05T20:38:30.925Z,4.40
2023-08-05T20:41:01.741Z,4.40
2023-08-05T20:43:30.052Z,4.70
2023-08-05T20:45:58.074Z,4.40
2023-08-05T20:48:25.861Z,5.20
2023-08-05T20:50:57.415Z,4.30
2023-08-05T20:53:27.653Z,4.40
2023-08-05T20:55:56.352Z,3.30
2023-08-05T20:58:24.752Z,4.70
2023-08-05T21:01:01.543Z,4.00
2023-08-05T21:03:32.923Z,3.30
2023-08-05T21:06:02.468Z,3.30
2023-08-05T21:08:31.461Z,4.50
2023-08-05T21:11:08.047Z,4.30
2023-08-05T21:13:39.944Z,3.00
2023-08-05T21:16:11.290Z,2.80
2023-08-05T21:18:42.535Z,4.00
2023-08-05T21:21:15.820Z,3.60
2023-08-05T21:23:47.145Z,5.20
2023-08-05T21:26:17.916Z,5.30
2023-08-05T21:28:48.341Z,6.40
2023-08-05T21:31:18.017Z,3.70
2023-08-05T21:33:46.167Z,3.80
2023-08-05T21:36:15.647Z,3.80
2023-08-05T21:38:43.683Z,4.20
2023-08-05T21:41:12.626Z,3.70
2023-08-05T21:43:42.393Z,3.90
2023-08-05T21:46:10.627Z,6.80
2023-08-05T21:48:42.709Z,3.60
2023-08-05T21:51:13.162Z,3.40
2023-08-05T21:53:43.657Z,3.10
2023-08-05T21:56:11.991Z,3.10
2023-08-05T21:58:40.288Z,3.50
2023-08-05T22:01:08.182Z,3.70
2023-08-05T22:03:36.113Z,3.50
2023-08-05T22:06:07.801Z,5.80
2023-08-05T22:08:38.188Z,2.50
2023-08-05T22:11:10.916Z,4.40
2023-08-05T22:13:38.770Z,3.10
2023-08-05T22:16:08.782Z,2.90
2023-08-05T22:18:40.596Z,2.10
2023-08-05T22:21:08.641Z,3.40
2023-08-05T22:23:36.511Z,2.20
2023-08-05T22:26:08.026Z,3.30
2023-08-05T22:28:37.158Z,3.40
2023-08-05T22:31:05.127Z,3.20
2023-08-05T22:33:32.952Z,3.90
2023-08-05T22:36:08.060Z,3.70
2023-08-05T22:38:35.915Z,2.60
2023-08-05T22:41:03.935Z,3.70
2023-08-05T22:43:31.756Z,3.90
2023-08-05T22:46:02.587Z,4.10
2023-08-05T22:48:33.467Z,4.30
2023-08-05T22:51:01.738Z,3.90
2023-08-05T22:53:29.731Z,2.20
2023-08-05T22:56:03.965Z,2.70
2023-08-05T22:58:34.311Z,2.10
2023-08-05T23:01:02.962Z,3.50
2023-08-05T23:03:34.331Z,2.70
2023-08-05T23:06:02.264Z,3.20
2023-08-05T23:08:30.137Z,2.70
2023-08-05T23:10:57.966Z,3.70
2023-08-05T23:13:27.326Z,2.80
2023-08-05T23:15:55.457Z,6.50
2023-08-05T23:18:23.531Z,2.10
2023-08-05T23:20:51.575Z,2.40
2023-08-05T23:23:19.517Z,3.40
2023-08-05T23:25:47.407Z,5.60
2023-08-05T23:28:15.384Z,5.20
2023-08-05T23:30:46.501Z,2.80
2023-08-05T23:33:14.588Z,2.80
2023-08-05T23:35:42.344Z,2.10
2023-08-05T23:38:13.744Z,4.20
2023-08-05T23:40:41.778Z,3.40
2023-08-05T23:43:09.776Z,4.10
2023-08-05T23:45:43.841Z,2.80
2023-08-05T23:48:11.992Z,4.10
2023-08-05T23:50:40.129Z,4.00
2023-08-05T23:53:08.108Z,2.60
2023-08-05T23:55:36.138Z,2.20
2023-08-05T23:58:03.913Z,3.50
